Weather at Miami Executive Airport

Public forecast

Using degrees Fahrenheit for public forecast. Weather courtesy of forecast.io.

Current aviation weather report (METAR) for Miami Executive Airport

Retrieved 2021/01/16 15:53 UTC (45 minutes ago):

KTMB 161553Z 28009KT 10SM CLR 20/11 A3004 RMK AO2 RAE1455 SLP171 P0000 T02000106

Aviation forecast (TAF) for Miami Executive Airport

Retrieved 2021/01/16 12:39 UTC (4 hours ago):

TAF KTMB 161135Z 1612/1712 33012KT P6SM BKN200 FM161600 30015KT P6SM SCT035 SCT250 FM170100 29006KT P6SM FEW045 FM170300 VRB03KT P6SM SKC